sensor_id;sensor_type;location;lat;lon;timestamp;P1;durP1;ratioP1;P2;durP2;ratioP2
19687;SDS011;9993;52.008;4.732;2022-08-11T00:00:20;6.15;;;4.88;;
19687;SDS011;9993;52.008;4.732;2022-08-11T00:02:47;5.88;;;4.78;;
19687;SDS011;9993;52.008;4.732;2022-08-11T00:05:15;5.43;;;4.93;;
19687;SDS011;9993;52.008;4.732;2022-08-11T00:07:48;5.50;;;4.90;;
19687;SDS011;9993;52.008;4.732;2022-08-11T00:10:15;5.88;;;5.25;;
19687;SDS011;9993;52.008;4.732;2022-08-11T00:12:41;6.43;;;5.30;;
19687;SDS011;9993;52.008;4.732;2022-08-11T00:15:07;7.45;;;5.35;;
19687;SDS011;9993;52.008;4.732;2022-08-11T00:17:33;6.15;;;4.75;;
19687;SDS011;9993;52.008;4.732;2022-08-11T00:20:05;5.68;;;5.10;;
19687;SDS011;9993;52.008;4.732;2022-08-11T00:22:31;6.28;;;5.68;;
19687;SDS011;9993;52.008;4.732;2022-08-11T00:24:56;9.27;;;5.47;;
19687;SDS011;9993;52.008;4.732;2022-08-11T00:27:32;6.00;;;5.40;;
19687;SDS011;9993;52.008;4.732;2022-08-11T00:30:16;6.13;;;5.53;;
19687;SDS011;9993;52.008;4.732;2022-08-11T00:32:43;6.05;;;5.45;;
19687;SDS011;9993;52.008;4.732;2022-08-11T00:35:13;5.53;;;4.95;;
19687;SDS011;9993;52.008;4.732;2022-08-11T00:37:43;7.63;;;5.90;;
19687;SDS011;9993;52.008;4.732;2022-08-11T00:40:14;6.35;;;5.75;;
19687;SDS011;9993;52.008;4.732;2022-08-11T00:45:14;6.65;;;5.55;;
19687;SDS011;9993;52.008;4.732;2022-08-11T00:47:43;6.10;;;5.50;;
19687;SDS011;9993;52.008;4.732;2022-08-11T00:50:20;6.07;;;5.30;;
19687;SDS011;9993;52.008;4.732;2022-08-11T01:27:12;5.90;;;5.35;;
19687;SDS011;9993;52.008;4.732;2022-08-11T01:43:02;6.40;;;5.45;;
19687;SDS011;9993;52.008;4.732;2022-08-11T01:48:42;7.90;;;5.10;;
19687;SDS011;9993;52.008;4.732;2022-08-11T02:01:53;4.90;;;4.40;;
19687;SDS011;9993;52.008;4.732;2022-08-11T02:11:57;6.70;;;4.60;;
19687;SDS011;9993;52.008;4.732;2022-08-11T02:14:27;5.45;;;4.50;;
19687;SDS011;9993;52.008;4.732;2022-08-11T02:19:37;4.88;;;4.15;;
19687;SDS011;9993;52.008;4.732;2022-08-11T02:22:24;7.00;;;4.25;;
19687;SDS011;9993;52.008;4.732;2022-08-11T02:25:33;5.30;;;4.50;;
19687;SDS011;9993;52.008;4.732;2022-08-11T02:27:58;5.50;;;4.85;;
19687;SDS011;9993;52.008;4.732;2022-08-11T02:30:26;5.75;;;4.40;;
19687;SDS011;9993;52.008;4.732;2022-08-11T02:36:05;5.03;;;4.57;;
19687;SDS011;9993;52.008;4.732;2022-08-11T02:38:35;5.45;;;4.90;;
19687;SDS011;9993;52.008;4.732;2022-08-11T02:44:00;6.43;;;4.57;;
19687;SDS011;9993;52.008;4.732;2022-08-11T02:46:28;5.00;;;4.45;;
19687;SDS011;9993;52.008;4.732;2022-08-11T02:48:57;5.63;;;4.63;;
19687;SDS011;9993;52.008;4.732;2022-08-11T02:54:28;7.35;;;5.55;;
19687;SDS011;9993;52.008;4.732;2022-08-11T02:56:57;6.13;;;4.70;;
19687;SDS011;9993;52.008;4.732;2022-08-11T03:08:00;7.55;;;5.18;;
19687;SDS011;9993;52.008;4.732;2022-08-11T03:13:42;6.32;;;4.75;;
19687;SDS011;9993;52.008;4.732;2022-08-11T03:21:41;7.50;;;4.88;;
19687;SDS011;9993;52.008;4.732;2022-08-11T03:24:17;5.72;;;5.10;;
19687;SDS011;9993;52.008;4.732;2022-08-11T03:26:55;5.45;;;4.88;;
19687;SDS011;9993;52.008;4.732;2022-08-11T03:31:55;5.55;;;5.05;;
19687;SDS011;9993;52.008;4.732;2022-08-11T03:34:24;6.07;;;4.80;;
19687;SDS011;9993;52.008;4.732;2022-08-11T03:37:04;5.63;;;4.72;;
19687;SDS011;9993;52.008;4.732;2022-08-11T03:39:54;6.30;;;4.68;;
19687;SDS011;9993;52.008;4.732;2022-08-11T03:42:27;6.32;;;4.75;;
19687;SDS011;9993;52.008;4.732;2022-08-11T03:44:58;7.40;;;4.70;;
19687;SDS011;9993;52.008;4.732;2022-08-11T03:53:01;5.93;;;5.22;;
19687;SDS011;9993;52.008;4.732;2022-08-11T04:00:54;5.05;;;4.57;;
19687;SDS011;9993;52.008;4.732;2022-08-11T04:06:24;5.28;;;4.60;;
19687;SDS011;9993;52.008;4.732;2022-08-11T04:17:33;5.60;;;5.10;;
19687;SDS011;9993;52.008;4.732;2022-08-11T04:28:19;6.75;;;4.85;;
19687;SDS011;9993;52.008;4.732;2022-08-11T04:30:58;8.13;;;5.38;;
19687;SDS011;9993;52.008;4.732;2022-08-11T04:44:59;7.15;;;5.18;;
19687;SDS011;9993;52.008;4.732;2022-08-11T04:56:03;6.10;;;4.88;;
19687;SDS011;9993;52.008;4.732;2022-08-11T04:58:55;7.63;;;4.97;;
19687;SDS011;9993;52.008;4.732;2022-08-11T05:13:01;5.78;;;5.28;;
19687;SDS011;9993;52.008;4.732;2022-08-11T05:15:53;6.43;;;4.90;;
19687;SDS011;9993;52.008;4.732;2022-08-11T05:18:48;5.70;;;5.03;;
19687;SDS011;9993;52.008;4.732;2022-08-11T05:21:33;7.30;;;5.35;;
19687;SDS011;9993;52.008;4.732;2022-08-11T05:24:21;7.20;;;5.10;;
19687;SDS011;9993;52.008;4.732;2022-08-11T05:27:06;5.43;;;4.93;;
19687;SDS011;9993;52.008;4.732;2022-08-11T05:29:55;6.57;;;5.78;;
19687;SDS011;9993;52.008;4.732;2022-08-11T05:32:41;4.43;;;4.03;;
19687;SDS011;9993;52.008;4.732;2022-08-11T05:35:28;8.35;;;5.22;;
19687;SDS011;9993;52.008;4.732;2022-08-11T05:37:55;6.22;;;5.07;;
19687;SDS011;9993;52.008;4.732;2022-08-11T05:40:45;6.63;;;5.18;;
19687;SDS011;9993;52.008;4.732;2022-08-11T05:43:29;5.82;;;5.13;;
19687;SDS011;9993;52.008;4.732;2022-08-11T05:46:14;6.50;;;5.13;;
19687;SDS011;9993;52.008;4.732;2022-08-11T05:48:58;7.40;;;6.13;;
19687;SDS011;9993;52.008;4.732;2022-08-11T05:51:43;6.40;;;5.30;;
19687;SDS011;9993;52.008;4.732;2022-08-11T05:54:27;9.15;;;6.25;;
19687;SDS011;9993;52.008;4.732;2022-08-11T05:57:19;5.93;;;5.38;;
19687;SDS011;9993;52.008;4.732;2022-08-11T05:59:45;7.55;;;4.93;;
19687;SDS011;9993;52.008;4.732;2022-08-11T06:02:11;7.47;;;6.10;;
19687;SDS011;9993;52.008;4.732;2022-08-11T06:04:37;6.72;;;5.78;;
19687;SDS011;9993;52.008;4.732;2022-08-11T06:07:06;6.25;;;5.57;;
19687;SDS011;9993;52.008;4.732;2022-08-11T06:12:22;6.72;;;5.63;;
19687;SDS011;9993;52.008;4.732;2022-08-11T06:14:48;6.68;;;5.93;;
19687;SDS011;9993;52.008;4.732;2022-08-11T06:17:17;7.25;;;5.78;;
19687;SDS011;9993;52.008;4.732;2022-08-11T06:19:46;6.18;;;5.57;;
19687;SDS011;9993;52.008;4.732;2022-08-11T06:22:12;5.65;;;5.15;;
19687;SDS011;9993;52.008;4.732;2022-08-11T06:24:39;8.77;;;5.65;;
19687;SDS011;9993;52.008;4.732;2022-08-11T06:27:05;9.18;;;6.18;;
19687;SDS011;9993;52.008;4.732;2022-08-11T06:29:30;9.10;;;6.03;;
19687;SDS011;9993;52.008;4.732;2022-08-11T06:31:57;7.57;;;6.00;;
19687;SDS011;9993;52.008;4.732;2022-08-11T06:39:37;7.50;;;6.00;;
19687;SDS011;9993;52.008;4.732;2022-08-11T06:42:08;6.43;;;5.82;;
19687;SDS011;9993;52.008;4.732;2022-08-11T06:44:50;5.85;;;5.25;;
19687;SDS011;9993;52.008;4.732;2022-08-11T06:47:16;8.07;;;5.95;;
19687;SDS011;9993;52.008;4.732;2022-08-11T06:49:45;6.53;;;5.93;;
19687;SDS011;9993;52.008;4.732;2022-08-11T06:52:30;6.38;;;5.78;;
19687;SDS011;9993;52.008;4.732;2022-08-11T06:54:55;7.03;;;6.00;;
19687;SDS011;9993;52.008;4.732;2022-08-11T06:57:29;6.88;;;5.35;;
19687;SDS011;9993;52.008;4.732;2022-08-11T07:00:15;6.05;;;5.20;;
19687;SDS011;9993;52.008;4.732;2022-08-11T07:03:00;6.00;;;5.40;;
19687;SDS011;9993;52.008;4.732;2022-08-11T07:05:37;6.55;;;5.20;;
19687;SDS011;9993;52.008;4.732;2022-08-11T07:13:48;8.23;;;5.38;;
19687;SDS011;9993;52.008;4.732;2022-08-11T07:16:35;7.30;;;4.95;;
19687;SDS011;9993;52.008;4.732;2022-08-11T07:19:06;5.35;;;4.80;;
19687;SDS011;9993;52.008;4.732;2022-08-11T07:21:50;5.82;;;5.22;;
19687;SDS011;9993;52.008;4.732;2022-08-11T07:24:41;12.65;;;5.07;;
19687;SDS011;9993;52.008;4.732;2022-08-11T07:27:27;5.30;;;4.65;;
19687;SDS011;9993;52.008;4.732;2022-08-11T07:30:12;7.55;;;4.80;;
19687;SDS011;9993;52.008;4.732;2022-08-11T07:32:40;7.75;;;5.07;;
19687;SDS011;9993;52.008;4.732;2022-08-11T07:35:10;5.55;;;4.53;;
19687;SDS011;9993;52.008;4.732;2022-08-11T07:37:40;8.80;;;4.70;;
19687;SDS011;9993;52.008;4.732;2022-08-11T07:40:06;6.38;;;4.57;;
19687;SDS011;9993;52.008;4.732;2022-08-11T07:42:32;7.47;;;5.13;;
19687;SDS011;9993;52.008;4.732;2022-08-11T07:45:01;5.03;;;4.50;;
19687;SDS011;9993;52.008;4.732;2022-08-11T07:47:46;4.60;;;3.83;;
19687;SDS011;9993;52.008;4.732;2022-08-11T07:50:30;6.30;;;4.18;;
19687;SDS011;9993;52.008;4.732;2022-08-11T07:53:14;6.03;;;4.15;;
19687;SDS011;9993;52.008;4.732;2022-08-11T07:55:40;6.30;;;4.15;;
19687;SDS011;9993;52.008;4.732;2022-08-11T07:58:06;4.22;;;3.78;;
19687;SDS011;9993;52.008;4.732;2022-08-11T08:00:53;4.47;;;4.07;;
19687;SDS011;9993;52.008;4.732;2022-08-11T08:03:38;5.50;;;3.75;;
19687;SDS011;9993;52.008;4.732;2022-08-11T08:06:22;5.05;;;3.30;;
19687;SDS011;9993;52.008;4.732;2022-08-11T08:09:07;3.85;;;3.30;;
19687;SDS011;9993;52.008;4.732;2022-08-11T08:11:51;5.18;;;3.80;;
19687;SDS011;9993;52.008;4.732;2022-08-11T08:14:35;4.70;;;3.50;;
19687;SDS011;9993;52.008;4.732;2022-08-11T08:17:20;4.05;;;3.70;;
19687;SDS011;9993;52.008;4.732;2022-08-11T08:20:04;5.47;;;3.40;;
19687;SDS011;9993;52.008;4.732;2022-08-11T08:22:32;4.15;;;3.53;;
19687;SDS011;9993;52.008;4.732;2022-08-11T08:24:58;4.47;;;3.30;;
19687;SDS011;9993;52.008;4.732;2022-08-11T08:27:24;3.65;;;3.30;;
19687;SDS011;9993;52.008;4.732;2022-08-11T08:29:50;9.70;;;3.15;;
19687;SDS011;9993;52.008;4.732;2022-08-11T08:32:36;4.75;;;3.28;;
19687;SDS011;9993;52.008;4.732;2022-08-11T08:35:02;9.52;;;3.92;;
19687;SDS011;9993;52.008;4.732;2022-08-11T08:37:28;3.47;;;3.17;;
19687;SDS011;9993;52.008;4.732;2022-08-11T08:39:53;5.00;;;3.50;;
19687;SDS011;9993;52.008;4.732;2022-08-11T08:45:26;4.22;;;3.38;;
19687;SDS011;9993;52.008;4.732;2022-08-11T08:47:59;5.70;;;3.50;;
19687;SDS011;9993;52.008;4.732;2022-08-11T08:50:26;5.45;;;3.55;;
19687;SDS011;9993;52.008;4.732;2022-08-11T08:53:12;3.72;;;3.35;;
19687;SDS011;9993;52.008;4.732;2022-08-11T08:55:38;4.55;;;3.20;;
19687;SDS011;9993;52.008;4.732;2022-08-11T08:58:05;3.55;;;2.72;;
19687;SDS011;9993;52.008;4.732;2022-08-11T09:00:41;4.78;;;3.20;;
19687;SDS011;9993;52.008;4.732;2022-08-11T09:03:08;3.65;;;2.83;;
19687;SDS011;9993;52.008;4.732;2022-08-11T09:05:36;4.38;;;3.17;;
19687;SDS011;9993;52.008;4.732;2022-08-11T09:08:02;4.35;;;2.70;;
19687;SDS011;9993;52.008;4.732;2022-08-11T09:10:27;5.90;;;3.28;;
19687;SDS011;9993;52.008;4.732;2022-08-11T09:13:05;5.93;;;3.10;;
19687;SDS011;9993;52.008;4.732;2022-08-11T09:15:30;6.07;;;3.40;;
19687;SDS011;9993;52.008;4.732;2022-08-11T09:17:58;3.72;;;2.88;;
19687;SDS011;9993;52.008;4.732;2022-08-11T09:20:53;4.63;;;3.40;;
19687;SDS011;9993;52.008;4.732;2022-08-11T09:23:19;4.45;;;3.03;;
19687;SDS011;9993;52.008;4.732;2022-08-11T09:26:11;3.00;;;2.75;;
19687;SDS011;9993;52.008;4.732;2022-08-11T09:28:55;3.60;;;2.90;;
19687;SDS011;9993;52.008;4.732;2022-08-11T09:31:21;4.05;;;3.00;;
19687;SDS011;9993;52.008;4.732;2022-08-11T09:33:50;5.22;;;2.80;;
19687;SDS011;9993;52.008;4.732;2022-08-11T09:36:25;2.85;;;2.65;;
19687;SDS011;9993;52.008;4.732;2022-08-11T09:39:09;5.82;;;3.20;;
19687;SDS011;9993;52.008;4.732;2022-08-11T09:41:53;3.28;;;2.90;;
19687;SDS011;9993;52.008;4.732;2022-08-11T09:44:25;3.65;;;2.80;;
19687;SDS011;9993;52.008;4.732;2022-08-11T09:47:09;3.05;;;2.75;;
19687;SDS011;9993;52.008;4.732;2022-08-11T09:49:42;4.57;;;3.20;;
19687;SDS011;9993;52.008;4.732;2022-08-11T09:52:08;5.55;;;2.60;;
19687;SDS011;9993;52.008;4.732;2022-08-11T09:54:34;4.18;;;2.88;;
19687;SDS011;9993;52.008;4.732;2022-08-11T09:56:59;4.63;;;3.28;;
19687;SDS011;9993;52.008;4.732;2022-08-11T09:59:43;4.68;;;3.08;;
19687;SDS011;9993;52.008;4.732;2022-08-11T10:02:09;4.28;;;2.90;;
19687;SDS011;9993;52.008;4.732;2022-08-11T10:04:37;3.63;;;2.90;;
19687;SDS011;9993;52.008;4.732;2022-08-11T10:07:04;4.40;;;3.10;;
19687;SDS011;9993;52.008;4.732;2022-08-11T10:09:35;5.07;;;2.83;;
19687;SDS011;9993;52.008;4.732;2022-08-11T10:12:06;2.90;;;2.50;;
19687;SDS011;9993;52.008;4.732;2022-08-11T10:14:32;3.40;;;2.80;;
19687;SDS011;9993;52.008;4.732;2022-08-11T10:17:17;8.27;;;3.03;;
19687;SDS011;9993;52.008;4.732;2022-08-11T10:19:44;5.00;;;2.83;;
19687;SDS011;9993;52.008;4.732;2022-08-11T10:22:13;6.82;;;2.83;;
19687;SDS011;9993;52.008;4.732;2022-08-11T10:25:01;8.55;;;3.00;;
19687;SDS011;9993;52.008;4.732;2022-08-11T10:27:46;5.10;;;3.33;;
19687;SDS011;9993;52.008;4.732;2022-08-11T10:30:17;4.53;;;2.97;;
19687;SDS011;9993;52.008;4.732;2022-08-11T10:33:01;4.45;;;2.72;;
19687;SDS011;9993;52.008;4.732;2022-08-11T10:35:45;4.65;;;3.00;;
19687;SDS011;9993;52.008;4.732;2022-08-11T10:38:12;5.60;;;3.30;;
19687;SDS011;9993;52.008;4.732;2022-08-11T10:40:38;3.83;;;3.00;;
19687;SDS011;9993;52.008;4.732;2022-08-11T10:43:04;3.30;;;2.78;;
19687;SDS011;9993;52.008;4.732;2022-08-11T10:45:32;3.35;;;3.03;;
19687;SDS011;9993;52.008;4.732;2022-08-11T10:48:17;4.20;;;3.00;;
19687;SDS011;9993;52.008;4.732;2022-08-11T10:50:46;4.47;;;3.00;;
19687;SDS011;9993;52.008;4.732;2022-08-11T10:53:29;3.10;;;2.80;;
19687;SDS011;9993;52.008;4.732;2022-08-11T10:56:17;4.57;;;3.38;;
19687;SDS011;9993;52.008;4.732;2022-08-11T10:59:03;4.05;;;2.80;;
19687;SDS011;9993;52.008;4.732;2022-08-11T11:01:30;2.92;;;2.63;;
19687;SDS011;9993;52.008;4.732;2022-08-11T11:04:17;3.63;;;2.50;;
19687;SDS011;9993;52.008;4.732;2022-08-11T11:09:17;2.55;;;2.17;;
19687;SDS011;9993;52.008;4.732;2022-08-11T11:11:50;2.10;;;1.90;;
19687;SDS011;9993;52.008;4.732;2022-08-11T11:14:35;2.30;;;1.92;;
19687;SDS011;9993;52.008;4.732;2022-08-11T11:17:22;2.67;;;2.20;;
19687;SDS011;9993;52.008;4.732;2022-08-11T11:20:12;2.25;;;2.03;;
19687;SDS011;9993;52.008;4.732;2022-08-11T11:22:38;3.15;;;2.10;;
19687;SDS011;9993;52.008;4.732;2022-08-11T11:30:50;2.50;;;2.30;;
19687;SDS011;9993;52.008;4.732;2022-08-11T11:33:29;2.72;;;2.17;;
19687;SDS011;9993;52.008;4.732;2022-08-11T11:36:07;2.67;;;2.33;;
19687;SDS011;9993;52.008;4.732;2022-08-11T11:38:34;2.20;;;1.88;;
19687;SDS011;9993;52.008;4.732;2022-08-11T11:41:00;3.90;;;1.77;;
19687;SDS011;9993;52.008;4.732;2022-08-11T11:43:44;3.15;;;2.08;;
19687;SDS011;9993;52.008;4.732;2022-08-11T11:46:16;2.28;;;2.08;;
19687;SDS011;9993;52.008;4.732;2022-08-11T11:48:42;3.50;;;2.10;;
19687;SDS011;9993;52.008;4.732;2022-08-11T11:51:13;2.63;;;2.20;;
19687;SDS011;9993;52.008;4.732;2022-08-11T11:53:41;2.45;;;2.25;;
19687;SDS011;9993;52.008;4.732;2022-08-11T11:56:07;2.67;;;2.20;;
19687;SDS011;9993;52.008;4.732;2022-08-11T11:58:33;2.85;;;2.17;;
19687;SDS011;9993;52.008;4.732;2022-08-11T12:01:21;2.97;;;2.08;;
19687;SDS011;9993;52.008;4.732;2022-08-11T12:03:49;2.38;;;2.20;;
19687;SDS011;9993;52.008;4.732;2022-08-11T12:06:23;6.20;;;2.00;;
19687;SDS011;9993;52.008;4.732;2022-08-11T12:08:54;5.30;;;2.28;;
19687;SDS011;9993;52.008;4.732;2022-08-11T12:11:20;3.30;;;2.28;;
19687;SDS011;9993;52.008;4.732;2022-08-11T12:14:05;2.83;;;2.30;;
19687;SDS011;9993;52.008;4.732;2022-08-11T12:16:32;2.42;;;2.10;;
19687;SDS011;9993;52.008;4.732;2022-08-11T12:19:00;5.40;;;2.10;;
19687;SDS011;9993;52.008;4.732;2022-08-11T12:21:26;2.63;;;2.38;;
19687;SDS011;9993;52.008;4.732;2022-08-11T12:23:52;3.28;;;2.40;;
19687;SDS011;9993;52.008;4.732;2022-08-11T12:26:37;3.13;;;2.00;;
19687;SDS011;9993;52.008;4.732;2022-08-11T12:29:23;3.10;;;2.33;;
19687;SDS011;9993;52.008;4.732;2022-08-11T12:31:54;2.25;;;2.03;;
19687;SDS011;9993;52.008;4.732;2022-08-11T12:34:20;2.33;;;2.13;;
19687;SDS011;9993;52.008;4.732;2022-08-11T12:36:48;3.05;;;1.98;;
19687;SDS011;9993;52.008;4.732;2022-08-11T12:39:30;2.67;;;1.77;;
19687;SDS011;9993;52.008;4.732;2022-08-11T12:42:16;2.97;;;2.15;;
19687;SDS011;9993;52.008;4.732;2022-08-11T12:45:06;2.28;;;1.80;;
19687;SDS011;9993;52.008;4.732;2022-08-11T12:50:49;4.88;;;1.70;;
19687;SDS011;9993;52.008;4.732;2022-08-11T12:53:34;2.88;;;2.53;;
19687;SDS011;9993;52.008;4.732;2022-08-11T12:56:04;3.10;;;2.30;;
19687;SDS011;9993;52.008;4.732;2022-08-11T12:58:50;3.08;;;1.92;;
19687;SDS011;9993;52.008;4.732;2022-08-11T13:01:22;2.13;;;1.65;;
19687;SDS011;9993;52.008;4.732;2022-08-11T13:04:06;3.47;;;1.80;;
19687;SDS011;9993;52.008;4.732;2022-08-11T13:06:56;2.20;;;2.00;;
19687;SDS011;9993;52.008;4.732;2022-08-11T13:09:27;2.63;;;2.28;;
19687;SDS011;9993;52.008;4.732;2022-08-11T13:11:54;3.08;;;2.03;;
19687;SDS011;9993;52.008;4.732;2022-08-11T13:14:38;2.55;;;1.90;;
19687;SDS011;9993;52.008;4.732;2022-08-11T13:17:03;3.13;;;1.85;;
19687;SDS011;9993;52.008;4.732;2022-08-11T13:19:55;5.13;;;1.90;;
19687;SDS011;9993;52.008;4.732;2022-08-11T13:22:21;4.50;;;1.90;;
19687;SDS011;9993;52.008;4.732;2022-08-11T13:24:48;2.92;;;1.88;;
19687;SDS011;9993;52.008;4.732;2022-08-11T13:27:15;4.03;;;2.33;;
19687;SDS011;9993;52.008;4.732;2022-08-11T13:29:42;4.03;;;2.10;;
19687;SDS011;9993;52.008;4.732;2022-08-11T13:32:19;2.72;;;2.00;;
19687;SDS011;9993;52.008;4.732;2022-08-11T13:34:46;2.90;;;2.17;;
19687;SDS011;9993;52.008;4.732;2022-08-11T13:37:14;2.53;;;2.10;;
19687;SDS011;9993;52.008;4.732;2022-08-11T13:39:41;1.92;;;1.80;;
19687;SDS011;9993;52.008;4.732;2022-08-11T13:42:11;2.65;;;2.40;;
19687;SDS011;9993;52.008;4.732;2022-08-11T13:44:37;2.25;;;2.00;;
19687;SDS011;9993;52.008;4.732;2022-08-11T13:47:04;4.50;;;2.25;;
19687;SDS011;9993;52.008;4.732;2022-08-11T13:49:48;3.55;;;2.22;;
19687;SDS011;9993;52.008;4.732;2022-08-11T13:52:15;5.70;;;2.10;;
19687;SDS011;9993;52.008;4.732;2022-08-11T13:54:40;2.42;;;2.22;;
19687;SDS011;9993;52.008;4.732;2022-08-11T13:57:07;2.60;;;2.40;;
19687;SDS011;9993;52.008;4.732;2022-08-11T13:59:32;2.30;;;2.10;;
19687;SDS011;9993;52.008;4.732;2022-08-11T14:02:02;5.00;;;2.35;;
19687;SDS011;9993;52.008;4.732;2022-08-11T14:07:06;3.85;;;2.30;;
19687;SDS011;9993;52.008;4.732;2022-08-11T14:09:35;2.90;;;2.10;;
19687;SDS011;9993;52.008;4.732;2022-08-11T14:12:02;2.65;;;2.30;;
19687;SDS011;9993;52.008;4.732;2022-08-11T14:14:56;2.40;;;2.20;;
19687;SDS011;9993;52.008;4.732;2022-08-11T14:17:23;4.30;;;2.17;;
19687;SDS011;9993;52.008;4.732;2022-08-11T14:19:50;3.92;;;2.15;;
19687;SDS011;9993;52.008;4.732;2022-08-11T14:22:18;3.30;;;2.30;;
19687;SDS011;9993;52.008;4.732;2022-08-11T14:24:46;2.92;;;2.38;;
19687;SDS011;9993;52.008;4.732;2022-08-11T14:27:13;3.63;;;2.10;;
19687;SDS011;9993;52.008;4.732;2022-08-11T14:29:39;2.50;;;2.30;;
19687;SDS011;9993;52.008;4.732;2022-08-11T14:32:09;2.53;;;2.33;;
19687;SDS011;9993;52.008;4.732;2022-08-11T14:34:35;3.35;;;2.15;;
19687;SDS011;9993;52.008;4.732;2022-08-11T14:37:06;2.53;;;2.10;;
19687;SDS011;9993;52.008;4.732;2022-08-11T14:39:37;2.53;;;2.33;;
19687;SDS011;9993;52.008;4.732;2022-08-11T14:42:05;2.35;;;2.00;;
19687;SDS011;9993;52.008;4.732;2022-08-11T14:44:50;2.40;;;2.20;;
19687;SDS011;9993;52.008;4.732;2022-08-11T14:47:38;2.85;;;1.90;;
19687;SDS011;9993;52.008;4.732;2022-08-11T14:50:04;2.33;;;2.13;;
19687;SDS011;9993;52.008;4.732;2022-08-11T14:52:33;2.10;;;2.00;;
19687;SDS011;9993;52.008;4.732;2022-08-11T14:54:59;3.22;;;2.20;;
19687;SDS011;9993;52.008;4.732;2022-08-11T14:57:43;2.67;;;2.22;;
19687;SDS011;9993;52.008;4.732;2022-08-11T15:00:15;3.25;;;1.88;;
19687;SDS011;9993;52.008;4.732;2022-08-11T15:02:42;2.92;;;2.08;;
19687;SDS011;9993;52.008;4.732;2022-08-11T15:05:26;1.85;;;1.73;;
19687;SDS011;9993;52.008;4.732;2022-08-11T15:07:53;1.83;;;1.70;;
19687;SDS011;9993;52.008;4.732;2022-08-11T15:10:21;3.00;;;2.17;;
19687;SDS011;9993;52.008;4.732;2022-08-11T15:12:55;4.03;;;3.13;;
19687;SDS011;9993;52.008;4.732;2022-08-11T15:15:27;2.85;;;1.80;;
19687;SDS011;9993;52.008;4.732;2022-08-11T15:18:12;2.42;;;2.10;;
19687;SDS011;9993;52.008;4.732;2022-08-11T15:20:41;2.20;;;1.70;;
19687;SDS011;9993;52.008;4.732;2022-08-11T15:23:25;3.20;;;2.13;;
19687;SDS011;9993;52.008;4.732;2022-08-11T15:26:10;3.15;;;2.22;;
19687;SDS011;9993;52.008;4.732;2022-08-11T15:28:39;2.13;;;1.60;;
19687;SDS011;9993;52.008;4.732;2022-08-11T15:31:24;2.00;;;1.90;;
19687;SDS011;9993;52.008;4.732;2022-08-11T15:33:54;2.08;;;1.88;;
19687;SDS011;9993;52.008;4.732;2022-08-11T15:36:39;3.88;;;2.33;;
19687;SDS011;9993;52.008;4.732;2022-08-11T15:39:30;2.83;;;1.88;;
19687;SDS011;9993;52.008;4.732;2022-08-11T15:41:57;3.78;;;1.98;;
19687;SDS011;9993;52.008;4.732;2022-08-11T15:44:42;2.90;;;2.10;;
19687;SDS011;9993;52.008;4.732;2022-08-11T15:47:32;2.20;;;1.98;;
19687;SDS011;9993;52.008;4.732;2022-08-11T15:49:58;2.28;;;1.90;;
19687;SDS011;9993;52.008;4.732;2022-08-11T15:52:28;2.10;;;1.88;;
19687;SDS011;9993;52.008;4.732;2022-08-11T15:54:54;4.20;;;2.13;;
19687;SDS011;9993;52.008;4.732;2022-08-11T15:57:26;1.73;;;1.35;;
19687;SDS011;9993;52.008;4.732;2022-08-11T16:00:21;2.60;;;1.83;;
19687;SDS011;9993;52.008;4.732;2022-08-11T16:03:05;2.92;;;2.22;;
19687;SDS011;9993;52.008;4.732;2022-08-11T16:05:50;2.20;;;2.00;;
19687;SDS011;9993;52.008;4.732;2022-08-11T16:08:15;2.38;;;2.15;;
19687;SDS011;9993;52.008;4.732;2022-08-11T16:10:41;2.85;;;1.95;;
19687;SDS011;9993;52.008;4.732;2022-08-11T16:13:07;2.22;;;1.70;;
19687;SDS011;9993;52.008;4.732;2022-08-11T16:15:38;5.13;;;1.85;;
19687;SDS011;9993;52.008;4.732;2022-08-11T16:18:32;2.97;;;1.83;;
19687;SDS011;9993;52.008;4.732;2022-08-11T16:21:06;4.03;;;1.95;;
19687;SDS011;9993;52.008;4.732;2022-08-11T16:23:32;3.97;;;2.20;;
19687;SDS011;9993;52.008;4.732;2022-08-11T16:25:57;3.22;;;2.03;;
19687;SDS011;9993;52.008;4.732;2022-08-11T16:28:24;2.40;;;1.73;;
19687;SDS011;9993;52.008;4.732;2022-08-11T16:30:50;3.20;;;1.80;;
19687;SDS011;9993;52.008;4.732;2022-08-11T16:33:20;2.60;;;2.13;;
19687;SDS011;9993;52.008;4.732;2022-08-11T16:35:48;1.95;;;1.60;;
19687;SDS011;9993;52.008;4.732;2022-08-11T16:38:33;3.22;;;2.03;;
19687;SDS011;9993;52.008;4.732;2022-08-11T16:41:04;2.40;;;2.20;;
19687;SDS011;9993;52.008;4.732;2022-08-11T16:43:35;2.50;;;1.92;;
19687;SDS011;9993;52.008;4.732;2022-08-11T16:46:20;2.35;;;1.75;;
19687;SDS011;9993;52.008;4.732;2022-08-11T16:49:06;2.25;;;2.05;;
19687;SDS011;9993;52.008;4.732;2022-08-11T16:51:35;2.42;;;2.17;;
19687;SDS011;9993;52.008;4.732;2022-08-11T16:54:00;2.33;;;1.95;;
19687;SDS011;9993;52.008;4.732;2022-08-11T16:56:28;2.90;;;2.00;;
19687;SDS011;9993;52.008;4.732;2022-08-11T16:58:54;2.03;;;1.83;;
19687;SDS011;9993;52.008;4.732;2022-08-11T17:01:39;2.03;;;1.92;;
19687;SDS011;9993;52.008;4.732;2022-08-11T17:04:19;2.60;;;2.17;;
19687;SDS011;9993;52.008;4.732;2022-08-11T17:07:04;1.73;;;1.63;;
19687;SDS011;9993;52.008;4.732;2022-08-11T17:09:48;3.08;;;2.03;;
19687;SDS011;9993;52.008;4.732;2022-08-11T17:12:31;2.50;;;2.00;;
19687;SDS011;9993;52.008;4.732;2022-08-11T17:15:17;2.67;;;1.90;;
19687;SDS011;9993;52.008;4.732;2022-08-11T17:18:02;2.78;;;1.90;;
19687;SDS011;9993;52.008;4.732;2022-08-11T17:20:29;2.75;;;1.92;;
19687;SDS011;9993;52.008;4.732;2022-08-11T17:22:55;2.88;;;1.85;;
19687;SDS011;9993;52.008;4.732;2022-08-11T17:25:39;3.92;;;2.03;;
19687;SDS011;9993;52.008;4.732;2022-08-11T17:28:05;4.50;;;2.25;;
19687;SDS011;9993;52.008;4.732;2022-08-11T17:30:30;2.25;;;1.55;;
19687;SDS011;9993;52.008;4.732;2022-08-11T17:33:15;2.00;;;1.73;;
19687;SDS011;9993;52.008;4.732;2022-08-11T17:35:59;3.15;;;2.20;;
19687;SDS011;9993;52.008;4.732;2022-08-11T17:38:25;2.78;;;1.88;;
19687;SDS011;9993;52.008;4.732;2022-08-11T17:40:55;2.03;;;1.58;;
19687;SDS011;9993;52.008;4.732;2022-08-11T17:43:39;3.90;;;2.00;;
19687;SDS011;9993;52.008;4.732;2022-08-11T17:46:23;2.58;;;1.88;;
19687;SDS011;9993;52.008;4.732;2022-08-11T17:49:08;2.10;;;1.90;;
19687;SDS011;9993;52.008;4.732;2022-08-11T17:51:35;2.35;;;2.00;;
19687;SDS011;9993;52.008;4.732;2022-08-11T17:54:20;2.95;;;2.05;;
19687;SDS011;9993;52.008;4.732;2022-08-11T17:57:04;2.00;;;1.88;;
19687;SDS011;9993;52.008;4.732;2022-08-11T17:59:51;4.70;;;2.00;;
19687;SDS011;9993;52.008;4.732;2022-08-11T18:05:36;2.45;;;2.05;;
19687;SDS011;9993;52.008;4.732;2022-08-11T18:08:03;3.35;;;2.00;;
19687;SDS011;9993;52.008;4.732;2022-08-11T18:10:47;2.45;;;1.98;;
19687;SDS011;9993;52.008;4.732;2022-08-11T18:13:33;2.60;;;2.17;;
19687;SDS011;9993;52.008;4.732;2022-08-11T18:16:18;2.42;;;2.05;;
19687;SDS011;9993;52.008;4.732;2022-08-11T18:19:02;5.22;;;2.78;;
19687;SDS011;9993;52.008;4.732;2022-08-11T18:21:46;2.35;;;2.03;;
19687;SDS011;9993;52.008;4.732;2022-08-11T18:24:37;2.10;;;1.98;;
19687;SDS011;9993;52.008;4.732;2022-08-11T18:27:25;2.42;;;1.98;;
19687;SDS011;9993;52.008;4.732;2022-08-11T18:30:10;2.33;;;2.10;;
19687;SDS011;9993;52.008;4.732;2022-08-11T18:32:54;2.47;;;2.28;;
19687;SDS011;9993;52.008;4.732;2022-08-11T18:35:40;2.47;;;2.17;;
19687;SDS011;9993;52.008;4.732;2022-08-11T18:38:25;2.58;;;2.38;;
19687;SDS011;9993;52.008;4.732;2022-08-11T18:41:09;3.05;;;2.42;;
19687;SDS011;9993;52.008;4.732;2022-08-11T18:43:54;4.45;;;2.17;;
19687;SDS011;9993;52.008;4.732;2022-08-11T18:46:39;2.90;;;2.17;;
19687;SDS011;9993;52.008;4.732;2022-08-11T18:49:24;4.00;;;2.60;;
19687;SDS011;9993;52.008;4.732;2022-08-11T18:52:10;3.45;;;2.50;;
19687;SDS011;9993;52.008;4.732;2022-08-11T18:54:56;3.13;;;2.17;;
19687;SDS011;9993;52.008;4.732;2022-08-11T18:57:40;2.17;;;2.00;;
19687;SDS011;9993;52.008;4.732;2022-08-11T19:00:24;4.82;;;2.42;;
19687;SDS011;9993;52.008;4.732;2022-08-11T19:03:10;2.70;;;2.40;;
19687;SDS011;9993;52.008;4.732;2022-08-11T19:05:55;2.28;;;2.08;;